sensor_id;sensor_type;location;lat;lon;timestamp;P1;durP1;ratioP1;P2;durP2;ratioP2
60867;SDS011;46702;48.370;10.794;2023-04-15T00:01:58;5.78;;;3.55;;
60867;SDS011;46702;48.370;10.794;2023-04-15T00:04:24;9.15;;;3.63;;
60867;SDS011;46702;48.370;10.794;2023-04-15T00:06:50;4.80;;;2.88;;
60867;SDS011;46702;48.370;10.794;2023-04-15T00:09:19;5.35;;;3.47;;
60867;SDS011;46702;48.370;10.794;2023-04-15T00:11:45;4.93;;;3.47;;
60867;SDS011;46702;48.370;10.794;2023-04-15T00:14:11;6.72;;;3.63;;
60867;SDS011;46702;48.370;10.794;2023-04-15T00:16:37;6.38;;;3.50;;
60867;SDS011;46702;48.370;10.794;2023-04-15T00:19:03;5.68;;;3.03;;
60867;SDS011;46702;48.370;10.794;2023-04-15T00:21:29;3.88;;;2.85;;
60867;SDS011;46702;48.370;10.794;2023-04-15T00:23:55;4.60;;;2.97;;
60867;SDS011;46702;48.370;10.794;2023-04-15T00:26:20;3.80;;;3.30;;
60867;SDS011;46702;48.370;10.794;2023-04-15T00:28:46;7.15;;;3.15;;
60867;SDS011;46702;48.370;10.794;2023-04-15T00:31:12;4.65;;;3.08;;
60867;SDS011;46702;48.370;10.794;2023-04-15T00:33:38;3.83;;;3.00;;
60867;SDS011;46702;48.370;10.794;2023-04-15T00:36:05;3.97;;;3.55;;
60867;SDS011;46702;48.370;10.794;2023-04-15T00:38:31;3.25;;;2.95;;
60867;SDS011;46702;48.370;10.794;2023-04-15T00:40:56;3.95;;;3.20;;
60867;SDS011;46702;48.370;10.794;2023-04-15T00:43:22;2.90;;;2.60;;
60867;SDS011;46702;48.370;10.794;2023-04-15T00:45:48;4.15;;;2.90;;
60867;SDS011;46702;48.370;10.794;2023-04-15T00:48:16;4.20;;;3.20;;
60867;SDS011;46702;48.370;10.794;2023-04-15T00:50:42;5.18;;;3.03;;
60867;SDS011;46702;48.370;10.794;2023-04-15T00:53:07;8.55;;;3.50;;
60867;SDS011;46702;48.370;10.794;2023-04-15T00:55:33;4.47;;;3.17;;
60867;SDS011;46702;48.370;10.794;2023-04-15T00:58:00;7.40;;;3.53;;
60867;SDS011;46702;48.370;10.794;2023-04-15T01:00:25;3.88;;;2.70;;
60867;SDS011;46702;48.370;10.794;2023-04-15T01:02:51;3.58;;;3.28;;
60867;SDS011;46702;48.370;10.794;2023-04-15T01:05:17;3.40;;;2.50;;
60867;SDS011;46702;48.370;10.794;2023-04-15T01:07:43;3.60;;;3.30;;
60867;SDS011;46702;48.370;10.794;2023-04-15T01:10:09;3.92;;;2.67;;
60867;SDS011;46702;48.370;10.794;2023-04-15T01:12:34;5.32;;;2.90;;
60867;SDS011;46702;48.370;10.794;2023-04-15T01:15:01;3.13;;;2.85;;
60867;SDS011;46702;48.370;10.794;2023-04-15T01:17:28;5.22;;;3.08;;
60867;SDS011;46702;48.370;10.794;2023-04-15T01:19:54;3.55;;;3.10;;
60867;SDS011;46702;48.370;10.794;2023-04-15T01:22:22;2.43;;;2.23;;
60867;SDS011;46702;48.370;10.794;2023-04-15T01:25:00;4.20;;;3.53;;
60867;SDS011;46702;48.370;10.794;2023-04-15T01:27:30;5.00;;;3.13;;
60867;SDS011;46702;48.370;10.794;2023-04-15T01:29:59;3.03;;;2.72;;
60867;SDS011;46702;48.370;10.794;2023-04-15T01:32:25;3.42;;;2.75;;
60867;SDS011;46702;48.370;10.794;2023-04-15T01:34:51;3.33;;;3.03;;
60867;SDS011;46702;48.370;10.794;2023-04-15T01:37:16;4.07;;;2.83;;
60867;SDS011;46702;48.370;10.794;2023-04-15T01:39:42;4.38;;;3.13;;
60867;SDS011;46702;48.370;10.794;2023-04-15T01:42:08;3.92;;;2.90;;
60867;SDS011;46702;48.370;10.794;2023-04-15T01:44:34;4.10;;;3.38;;
60867;SDS011;46702;48.370;10.794;2023-04-15T01:46:59;5.00;;;3.22;;
60867;SDS011;46702;48.370;10.794;2023-04-15T01:49:25;5.68;;;2.90;;
60867;SDS011;46702;48.370;10.794;2023-04-15T01:51:51;4.30;;;2.92;;
60867;SDS011;46702;48.370;10.794;2023-04-15T01:54:18;5.57;;;3.40;;
60867;SDS011;46702;48.370;10.794;2023-04-15T01:56:43;3.05;;;2.47;;
60867;SDS011;46702;48.370;10.794;2023-04-15T01:59:09;3.13;;;2.80;;
60867;SDS011;46702;48.370;10.794;2023-04-15T02:01:34;5.65;;;2.90;;
60867;SDS011;46702;48.370;10.794;2023-04-15T02:04:00;3.65;;;3.30;;
60867;SDS011;46702;48.370;10.794;2023-04-15T02:06:26;4.10;;;2.80;;
60867;SDS011;46702;48.370;10.794;2023-04-15T02:08:52;3.28;;;2.80;;
60867;SDS011;46702;48.370;10.794;2023-04-15T02:11:17;3.40;;;3.10;;
60867;SDS011;46702;48.370;10.794;2023-04-15T02:13:43;5.20;;;2.72;;
60867;SDS011;46702;48.370;10.794;2023-04-15T02:16:16;4.45;;;3.38;;
60867;SDS011;46702;48.370;10.794;2023-04-15T02:18:45;2.55;;;2.35;;
60867;SDS011;46702;48.370;10.794;2023-04-15T02:21:11;3.83;;;3.20;;
60867;SDS011;46702;48.370;10.794;2023-04-15T02:23:37;4.70;;;3.53;;
60867;SDS011;46702;48.370;10.794;2023-04-15T02:26:02;6.55;;;3.67;;
60867;SDS011;46702;48.370;10.794;2023-04-15T02:28:28;6.72;;;3.78;;
60867;SDS011;46702;48.370;10.794;2023-04-15T02:30:54;6.43;;;3.70;;
60867;SDS011;46702;48.370;10.794;2023-04-15T02:33:21;6.50;;;3.20;;
60867;SDS011;46702;48.370;10.794;2023-04-15T02:35:47;5.47;;;3.28;;
60867;SDS011;46702;48.370;10.794;2023-04-15T02:38:12;4.22;;;2.97;;
60867;SDS011;46702;48.370;10.794;2023-04-15T02:40:40;6.93;;;3.47;;
60867;SDS011;46702;48.370;10.794;2023-04-15T02:43:06;4.22;;;2.63;;
60867;SDS011;46702;48.370;10.794;2023-04-15T02:45:32;6.43;;;3.03;;
60867;SDS011;46702;48.370;10.794;2023-04-15T02:47:57;4.93;;;3.42;;
60867;SDS011;46702;48.370;10.794;2023-04-15T02:50:23;3.08;;;2.78;;
60867;SDS011;46702;48.370;10.794;2023-04-15T02:52:49;4.70;;;3.25;;
60867;SDS011;46702;48.370;10.794;2023-04-15T02:55:16;3.72;;;2.92;;
60867;SDS011;46702;48.370;10.794;2023-04-15T02:57:42;4.78;;;3.47;;
60867;SDS011;46702;48.370;10.794;2023-04-15T03:00:08;4.20;;;3.35;;
60867;SDS011;46702;48.370;10.794;2023-04-15T03:02:36;4.00;;;3.47;;
60867;SDS011;46702;48.370;10.794;2023-04-15T03:05:03;5.38;;;3.72;;
60867;SDS011;46702;48.370;10.794;2023-04-15T03:07:30;5.82;;;3.45;;
60867;SDS011;46702;48.370;10.794;2023-04-15T03:09:55;5.72;;;3.78;;
60867;SDS011;46702;48.370;10.794;2023-04-15T03:12:21;7.93;;;3.10;;
60867;SDS011;46702;48.370;10.794;2023-04-15T03:14:47;6.68;;;3.72;;
60867;SDS011;46702;48.370;10.794;2023-04-15T03:17:12;5.50;;;3.45;;
60867;SDS011;46702;48.370;10.794;2023-04-15T03:19:38;5.93;;;3.47;;
60867;SDS011;46702;48.370;10.794;2023-04-15T03:22:04;6.72;;;3.85;;
60867;SDS011;46702;48.370;10.794;2023-04-15T03:24:29;3.20;;;2.95;;
60867;SDS011;46702;48.370;10.794;2023-04-15T03:26:55;4.40;;;3.47;;
60867;SDS011;46702;48.370;10.794;2023-04-15T03:29:22;3.47;;;3.17;;
60867;SDS011;46702;48.370;10.794;2023-04-15T03:31:47;4.00;;;3.50;;
60867;SDS011;46702;48.370;10.794;2023-04-15T03:34:13;5.47;;;3.40;;
60867;SDS011;46702;48.370;10.794;2023-04-15T03:36:38;4.75;;;3.30;;
60867;SDS011;46702;48.370;10.794;2023-04-15T03:39:04;3.45;;;3.08;;
60867;SDS011;46702;48.370;10.794;2023-04-15T03:41:30;4.70;;;3.10;;
60867;SDS011;46702;48.370;10.794;2023-04-15T03:43:56;3.70;;;3.40;;
60867;SDS011;46702;48.370;10.794;2023-04-15T03:46:22;3.72;;;3.00;;
60867;SDS011;46702;48.370;10.794;2023-04-15T03:48:47;6.70;;;3.40;;
60867;SDS011;46702;48.370;10.794;2023-04-15T03:51:13;3.47;;;2.78;;
60867;SDS011;46702;48.370;10.794;2023-04-15T03:53:39;8.57;;;3.85;;
60867;SDS011;46702;48.370;10.794;2023-04-15T03:56:04;4.10;;;3.33;;
60867;SDS011;46702;48.370;10.794;2023-04-15T03:58:30;4.10;;;3.22;;
60867;SDS011;46702;48.370;10.794;2023-04-15T04:00:55;3.20;;;2.90;;
60867;SDS011;46702;48.370;10.794;2023-04-15T04:03:21;4.63;;;2.63;;
60867;SDS011;46702;48.370;10.794;2023-04-15T04:05:47;5.78;;;3.35;;
60867;SDS011;46702;48.370;10.794;2023-04-15T04:08:13;4.65;;;3.17;;
60867;SDS011;46702;48.370;10.794;2023-04-15T04:10:40;5.68;;;3.65;;
60867;SDS011;46702;48.370;10.794;2023-04-15T04:13:06;5.80;;;2.88;;
60867;SDS011;46702;48.370;10.794;2023-04-15T04:15:31;5.38;;;3.28;;
60867;SDS011;46702;48.370;10.794;2023-04-15T04:17:57;3.33;;;2.90;;
60867;SDS011;46702;48.370;10.794;2023-04-15T04:20:23;4.85;;;3.13;;
60867;SDS011;46702;48.370;10.794;2023-04-15T04:22:49;6.43;;;3.38;;
60867;SDS011;46702;48.370;10.794;2023-04-15T04:25:14;4.80;;;3.78;;
60867;SDS011;46702;48.370;10.794;2023-04-15T04:27:40;4.40;;;2.80;;
60867;SDS011;46702;48.370;10.794;2023-04-15T04:30:06;3.65;;;2.85;;
60867;SDS011;46702;48.370;10.794;2023-04-15T04:32:32;5.68;;;3.47;;
60867;SDS011;46702;48.370;10.794;2023-04-15T04:34:57;5.32;;;3.08;;
60867;SDS011;46702;48.370;10.794;2023-04-15T04:37:23;5.07;;;3.42;;
60867;SDS011;46702;48.370;10.794;2023-04-15T04:39:49;3.83;;;3.25;;
60867;SDS011;46702;48.370;10.794;2023-04-15T04:42:14;2.72;;;2.53;;
60867;SDS011;46702;48.370;10.794;2023-04-15T04:44:40;3.83;;;3.05;;
60867;SDS011;46702;48.370;10.794;2023-04-15T04:47:06;3.35;;;2.80;;
60867;SDS011;46702;48.370;10.794;2023-04-15T04:49:32;3.40;;;3.10;;
60867;SDS011;46702;48.370;10.794;2023-04-15T04:51:58;3.83;;;2.92;;
60867;SDS011;46702;48.370;10.794;2023-04-15T04:54:23;4.95;;;3.25;;
60867;SDS011;46702;48.370;10.794;2023-04-15T04:56:49;6.85;;;3.50;;
60867;SDS011;46702;48.370;10.794;2023-04-15T04:59:15;4.05;;;3.28;;
60867;SDS011;46702;48.370;10.794;2023-04-15T05:01:41;5.82;;;3.00;;
60867;SDS011;46702;48.370;10.794;2023-04-15T05:04:07;5.35;;;3.05;;
60867;SDS011;46702;48.370;10.794;2023-04-15T05:06:32;7.32;;;3.75;;
60867;SDS011;46702;48.370;10.794;2023-04-15T05:08:59;5.60;;;3.60;;
60867;SDS011;46702;48.370;10.794;2023-04-15T05:11:25;4.30;;;2.85;;
60867;SDS011;46702;48.370;10.794;2023-04-15T05:13:52;5.38;;;3.17;;
60867;SDS011;46702;48.370;10.794;2023-04-15T05:16:17;4.15;;;3.17;;
60867;SDS011;46702;48.370;10.794;2023-04-15T05:18:43;3.75;;;2.67;;
60867;SDS011;46702;48.370;10.794;2023-04-15T05:21:09;3.30;;;2.65;;
60867;SDS011;46702;48.370;10.794;2023-04-15T05:23:35;8.70;;;3.80;;
60867;SDS011;46702;48.370;10.794;2023-04-15T05:26:01;4.32;;;2.80;;
60867;SDS011;46702;48.370;10.794;2023-04-15T05:28:27;3.35;;;3.05;;
60867;SDS011;46702;48.370;10.794;2023-04-15T05:30:53;5.15;;;3.05;;
60867;SDS011;46702;48.370;10.794;2023-04-15T05:33:18;5.78;;;3.17;;
60867;SDS011;46702;48.370;10.794;2023-04-15T05:35:44;4.15;;;2.65;;
60867;SDS011;46702;48.370;10.794;2023-04-15T05:38:12;3.67;;;2.83;;
60867;SDS011;46702;48.370;10.794;2023-04-15T05:40:38;3.80;;;2.60;;
60867;SDS011;46702;48.370;10.794;2023-04-15T05:43:04;5.13;;;2.92;;
60867;SDS011;46702;48.370;10.794;2023-04-15T05:45:29;3.83;;;2.95;;
60867;SDS011;46702;48.370;10.794;2023-04-15T05:47:55;4.50;;;2.30;;
60867;SDS011;46702;48.370;10.794;2023-04-15T05:50:20;3.45;;;2.47;;
60867;SDS011;46702;48.370;10.794;2023-04-15T05:52:46;5.25;;;2.17;;
60867;SDS011;46702;48.370;10.794;2023-04-15T05:55:12;3.35;;;2.38;;
60867;SDS011;46702;48.370;10.794;2023-04-15T05:57:38;3.65;;;2.50;;
60867;SDS011;46702;48.370;10.794;2023-04-15T06:00:04;2.95;;;2.20;;
60867;SDS011;46702;48.370;10.794;2023-04-15T06:02:30;3.75;;;2.20;;
60867;SDS011;46702;48.370;10.794;2023-04-15T06:04:56;4.15;;;2.15;;
60867;SDS011;46702;48.370;10.794;2023-04-15T06:07:22;4.38;;;2.17;;
60867;SDS011;46702;48.370;10.794;2023-04-15T06:09:48;4.70;;;2.63;;
60867;SDS011;46702;48.370;10.794;2023-04-15T06:12:14;4.03;;;1.90;;
60867;SDS011;46702;48.370;10.794;2023-04-15T06:14:39;2.35;;;1.85;;
60867;SDS011;46702;48.370;10.794;2023-04-15T06:17:05;2.20;;;2.00;;
60867;SDS011;46702;48.370;10.794;2023-04-15T06:19:32;2.38;;;2.10;;
60867;SDS011;46702;48.370;10.794;2023-04-15T06:21:58;3.47;;;2.20;;
60867;SDS011;46702;48.370;10.794;2023-04-15T06:24:24;5.00;;;2.50;;
60867;SDS011;46702;48.370;10.794;2023-04-15T06:26:49;4.68;;;2.30;;
60867;SDS011;46702;48.370;10.794;2023-04-15T06:29:15;3.65;;;1.83;;
60867;SDS011;46702;48.370;10.794;2023-04-15T06:31:41;2.70;;;1.85;;
60867;SDS011;46702;48.370;10.794;2023-04-15T06:34:07;1.80;;;1.70;;
60867;SDS011;46702;48.370;10.794;2023-04-15T06:36:32;3.53;;;1.80;;
60867;SDS011;46702;48.370;10.794;2023-04-15T06:38:58;4.53;;;1.80;;
60867;SDS011;46702;48.370;10.794;2023-04-15T06:41:23;2.67;;;1.67;;
60867;SDS011;46702;48.370;10.794;2023-04-15T06:43:49;3.08;;;1.80;;
60867;SDS011;46702;48.370;10.794;2023-04-15T06:46:15;2.08;;;1.80;;
60867;SDS011;46702;48.370;10.794;2023-04-15T06:48:41;2.67;;;1.73;;
60867;SDS011;46702;48.370;10.794;2023-04-15T06:51:06;3.05;;;2.00;;
60867;SDS011;46702;48.370;10.794;2023-04-15T06:53:32;3.25;;;2.15;;
60867;SDS011;46702;48.370;10.794;2023-04-15T06:55:59;2.42;;;1.80;;
60867;SDS011;46702;48.370;10.794;2023-04-15T06:58:25;3.50;;;2.20;;
60867;SDS011;46702;48.370;10.794;2023-04-15T07:00:51;3.22;;;1.85;;
60867;SDS011;46702;48.370;10.794;2023-04-15T07:03:17;4.70;;;2.03;;
60867;SDS011;46702;48.370;10.794;2023-04-15T07:05:42;4.18;;;1.60;;
60867;SDS011;46702;48.370;10.794;2023-04-15T07:08:08;3.22;;;1.92;;
60867;SDS011;46702;48.370;10.794;2023-04-15T07:10:34;3.42;;;1.75;;
60867;SDS011;46702;48.370;10.794;2023-04-15T07:13:00;4.47;;;2.35;;
60867;SDS011;46702;48.370;10.794;2023-04-15T07:15:25;5.70;;;2.30;;
60867;SDS011;46702;48.370;10.794;2023-04-15T07:17:51;1.45;;;1.35;;
60867;SDS011;46702;48.370;10.794;2023-04-15T07:20:17;4.80;;;1.85;;
60867;SDS011;46702;48.370;10.794;2023-04-15T07:22:42;2.38;;;2.00;;
60867;SDS011;46702;48.370;10.794;2023-04-15T07:25:08;4.35;;;2.20;;
60867;SDS011;46702;48.370;10.794;2023-04-15T07:27:34;2.38;;;1.90;;
60867;SDS011;46702;48.370;10.794;2023-04-15T07:30:00;2.53;;;1.45;;
60867;SDS011;46702;48.370;10.794;2023-04-15T07:32:26;4.82;;;1.73;;
60867;SDS011;46702;48.370;10.794;2023-04-15T07:34:51;5.65;;;2.00;;
60867;SDS011;46702;48.370;10.794;2023-04-15T07:37:17;3.17;;;1.98;;
60867;SDS011;46702;48.370;10.794;2023-04-15T07:39:43;2.10;;;1.90;;
60867;SDS011;46702;48.370;10.794;2023-04-15T07:42:09;3.17;;;1.90;;
60867;SDS011;46702;48.370;10.794;2023-04-15T07:44:35;4.18;;;1.80;;
60867;SDS011;46702;48.370;10.794;2023-04-15T07:47:01;2.72;;;1.50;;
60867;SDS011;46702;48.370;10.794;2023-04-15T07:49:27;1.73;;;1.42;;
60867;SDS011;46702;48.370;10.794;2023-04-15T07:51:52;2.53;;;1.48;;
60867;SDS011;46702;48.370;10.794;2023-04-15T07:54:18;4.13;;;2.15;;
60867;SDS011;46702;48.370;10.794;2023-04-15T07:56:44;2.50;;;2.00;;
60867;SDS011;46702;48.370;10.794;2023-04-15T07:59:10;3.50;;;1.75;;
60867;SDS011;46702;48.370;10.794;2023-04-15T08:01:35;4.05;;;1.63;;
60867;SDS011;46702;48.370;10.794;2023-04-15T08:04:01;3.42;;;1.70;;
60867;SDS011;46702;48.370;10.794;2023-04-15T08:06:27;4.32;;;2.28;;
60867;SDS011;46702;48.370;10.794;2023-04-15T08:08:53;1.65;;;1.50;;
60867;SDS011;46702;48.370;10.794;2023-04-15T08:11:19;1.75;;;1.50;;
60867;SDS011;46702;48.370;10.794;2023-04-15T08:13:45;4.50;;;1.90;;
60867;SDS011;46702;48.370;10.794;2023-04-15T08:18:46;4.78;;;2.05;;
60867;SDS011;46702;48.370;10.794;2023-04-15T08:21:13;3.70;;;2.03;;
60867;SDS011;46702;48.370;10.794;2023-04-15T08:23:38;2.35;;;1.80;;
60867;SDS011;46702;48.370;10.794;2023-04-15T08:26:04;2.78;;;1.90;;
60867;SDS011;46702;48.370;10.794;2023-04-15T08:28:31;3.58;;;2.08;;
60867;SDS011;46702;48.370;10.794;2023-04-15T08:30:57;1.92;;;1.70;;
60867;SDS011;46702;48.370;10.794;2023-04-15T08:33:22;3.20;;;2.03;;
60867;SDS011;46702;48.370;10.794;2023-04-15T08:35:48;1.83;;;1.60;;
60867;SDS011;46702;48.370;10.794;2023-04-15T08:38:14;3.22;;;1.70;;
60867;SDS011;46702;48.370;10.794;2023-04-15T08:40:40;4.53;;;1.85;;
60867;SDS011;46702;48.370;10.794;2023-04-15T08:43:08;3.85;;;1.92;;
60867;SDS011;46702;48.370;10.794;2023-04-15T08:45:37;1.98;;;1.75;;
60867;SDS011;46702;48.370;10.794;2023-04-15T08:48:04;6.93;;;1.80;;
60867;SDS011;46702;48.370;10.794;2023-04-15T08:50:31;3.13;;;1.73;;
60867;SDS011;46702;48.370;10.794;2023-04-15T08:53:00;3.58;;;2.03;;
60867;SDS011;46702;48.370;10.794;2023-04-15T08:55:29;2.72;;;2.03;;
60867;SDS011;46702;48.370;10.794;2023-04-15T08:58:00;3.50;;;2.10;;
60867;SDS011;46702;48.370;10.794;2023-04-15T09:00:27;4.45;;;1.98;;
60867;SDS011;46702;48.370;10.794;2023-04-15T09:02:53;3.30;;;2.13;;
60867;SDS011;46702;48.370;10.794;2023-04-15T09:05:20;3.50;;;2.10;;
60867;SDS011;46702;48.370;10.794;2023-04-15T09:07:46;2.55;;;2.20;;
60867;SDS011;46702;48.370;10.794;2023-04-15T09:10:14;2.03;;;1.55;;
60867;SDS011;46702;48.370;10.794;2023-04-15T09:12:39;2.35;;;1.83;;
60867;SDS011;46702;48.370;10.794;2023-04-15T09:15:05;4.38;;;1.65;;
60867;SDS011;46702;48.370;10.794;2023-04-15T09:17:36;2.42;;;1.90;;
60867;SDS011;46702;48.370;10.794;2023-04-15T09:20:10;1.42;;;1.33;;
60867;SDS011;46702;48.370;10.794;2023-04-15T09:22:41;3.88;;;2.10;;
60867;SDS011;46702;48.370;10.794;2023-04-15T09:27:51;3.42;;;2.67;;
60867;SDS011;46702;48.370;10.794;2023-04-15T09:30:21;2.90;;;2.10;;
60867;SDS011;46702;48.370;10.794;2023-04-15T09:32:51;2.30;;;2.10;;
60867;SDS011;46702;48.370;10.794;2023-04-15T09:35:18;5.05;;;2.30;;
60867;SDS011;46702;48.370;10.794;2023-04-15T09:37:44;2.78;;;2.10;;
60867;SDS011;46702;48.370;10.794;2023-04-15T09:40:10;3.53;;;2.20;;
60867;SDS011;46702;48.370;10.794;2023-04-15T09:43:00;4.15;;;2.40;;
60867;SDS011;46702;48.370;10.794;2023-04-15T09:45:29;4.82;;;2.25;;
60867;SDS011;46702;48.370;10.794;2023-04-15T09:47:59;7.10;;;2.80;;
60867;SDS011;46702;48.370;10.794;2023-04-15T09:50:41;3.40;;;2.38;;
60867;SDS011;46702;48.370;10.794;2023-04-15T09:53:08;3.65;;;2.90;;
60867;SDS011;46702;48.370;10.794;2023-04-15T09:55:35;6.53;;;3.28;;
60867;SDS011;46702;48.370;10.794;2023-04-15T09:58:01;4.88;;;2.85;;
60867;SDS011;46702;48.370;10.794;2023-04-15T10:00:35;2.78;;;2.42;;
60867;SDS011;46702;48.370;10.794;2023-04-15T10:03:02;5.35;;;3.05;;
60867;SDS011;46702;48.370;10.794;2023-04-15T10:05:29;6.68;;;3.15;;
60867;SDS011;46702;48.370;10.794;2023-04-15T10:07:56;3.95;;;2.80;;
60867;SDS011;46702;48.370;10.794;2023-04-15T10:10:22;6.93;;;2.90;;
60867;SDS011;46702;48.370;10.794;2023-04-15T10:12:48;3.25;;;2.80;;
60867;SDS011;46702;48.370;10.794;2023-04-15T10:15:16;3.28;;;2.97;;
60867;SDS011;46702;48.370;10.794;2023-04-15T10:17:43;4.35;;;3.10;;
60867;SDS011;46702;48.370;10.794;2023-04-15T10:20:09;3.05;;;2.53;;
60867;SDS011;46702;48.370;10.794;2023-04-15T10:22:37;5.27;;;2.70;;
60867;SDS011;46702;48.370;10.794;2023-04-15T10:25:05;4.13;;;2.70;;
60867;SDS011;46702;48.370;10.794;2023-04-15T10:27:31;4.50;;;3.08;;
60867;SDS011;46702;48.370;10.794;2023-04-15T10:29:59;5.80;;;3.00;;
60867;SDS011;46702;48.370;10.794;2023-04-15T10:32:25;6.85;;;3.28;;
60867;SDS011;46702;48.370;10.794;2023-04-15T10:34:51;3.17;;;2.58;;
60867;SDS011;46702;48.370;10.794;2023-04-15T10:37:21;6.63;;;3.30;;
60867;SDS011;46702;48.370;10.794;2023-04-15T10:39:57;5.20;;;2.90;;
60867;SDS011;46702;48.370;10.794;2023-04-15T10:42:23;3.70;;;3.20;;
60867;SDS011;46702;48.370;10.794;2023-04-15T10:44:49;5.18;;;3.13;;
60867;SDS011;46702;48.370;10.794;2023-04-15T10:47:17;5.85;;;2.88;;
60867;SDS011;46702;48.370;10.794;2023-04-15T10:52:24;6.35;;;3.08;;
60867;SDS011;46702;48.370;10.794;2023-04-15T10:55:01;6.30;;;2.92;;
60867;SDS011;46702;48.370;10.794;2023-04-15T10:57:38;4.15;;;2.90;;
60867;SDS011;46702;48.370;10.794;2023-04-15T11:00:09;4.93;;;2.58;;
60867;SDS011;46702;48.370;10.794;2023-04-15T11:03:15;4.47;;;2.65;;
60867;SDS011;46702;48.370;10.794;2023-04-15T11:08:05;5.80;;;1.98;;
60867;SDS011;46702;48.370;10.794;2023-04-15T11:20:34;1.60;;;1.50;;
60867;SDS011;46702;48.370;10.794;2023-04-15T11:23:00;1.48;;;1.38;;
60867;SDS011;46702;48.370;10.794;2023-04-15T11:25:27;2.30;;;1.40;;
60867;SDS011;46702;48.370;10.794;2023-04-15T11:32:47;4.38;;;1.77;;
60867;SDS011;46702;48.370;10.794;2023-04-15T11:35:15;2.10;;;1.73;;
60867;SDS011;46702;48.370;10.794;2023-04-15T11:37:45;2.90;;;1.80;;
60867;SDS011;46702;48.370;10.794;2023-04-15T11:40:12;2.67;;;1.70;;
60867;SDS011;46702;48.370;10.794;2023-04-15T11:42:39;3.08;;;1.60;;
60867;SDS011;46702;48.370;10.794;2023-04-15T11:45:05;1.48;;;1.38;;
60867;SDS011;46702;48.370;10.794;2023-04-15T11:47:35;2.03;;;1.52;;
60867;SDS011;46702;48.370;10.794;2023-04-15T11:52:59;1.83;;;1.60;;
60867;SDS011;46702;48.370;10.794;2023-04-15T11:55:27;2.38;;;1.20;;
60867;SDS011;46702;48.370;10.794;2023-04-15T12:00:35;1.63;;;1.33;;
60867;SDS011;46702;48.370;10.794;2023-04-15T12:03:14;2.42;;;1.75;;
60867;SDS011;46702;48.370;10.794;2023-04-15T12:14:15;3.20;;;1.75;;
60867;SDS011;46702;48.370;10.794;2023-04-15T12:16:46;1.70;;;1.60;;
60867;SDS011;46702;48.370;10.794;2023-04-15T12:19:15;1.70;;;1.60;;
60867;SDS011;46702;48.370;10.794;2023-04-15T12:21:44;3.88;;;1.73;;
60867;SDS011;46702;48.370;10.794;2023-04-15T12:24:11;10.63;;;1.88;;
60867;SDS011;46702;48.370;10.794;2023-04-15T12:27:00;1.60;;;1.50;;
60867;SDS011;46702;48.370;10.794;2023-04-15T12:29:27;2.60;;;1.63;;
60867;SDS011;46702;48.370;10.794;2023-04-15T12:31:57;5.88;;;2.35;;
60867;SDS011;46702;48.370;10.794;2023-04-15T12:34:30;2.72;;;2.10;;
60867;SDS011;46702;48.370;10.794;2023-04-15T12:37:04;2.20;;;1.80;;
60867;SDS011;46702;48.370;10.794;2023-04-15T12:39:33;2.10;;;1.88;;
60867;SDS011;46702;48.370;10.794;2023-04-15T12:42:00;2.13;;;2.03;;
60867;SDS011;46702;48.370;10.794;2023-04-15T12:44:26;1.85;;;1.67;;
60867;SDS011;46702;48.370;10.794;2023-04-15T12:46:52;1.77;;;1.58;;
60867;SDS011;46702;48.370;10.794;2023-04-15T12:49:22;2.28;;;1.90;;
60867;SDS011;46702;48.370;10.794;2023-04-15T12:51:48;2.47;;;1.65;;
60867;SDS011;46702;48.370;10.794;2023-04-15T12:54:20;2.33;;;1.85;;
60867;SDS011;46702;48.370;10.794;2023-04-15T12:56:46;2.30;;;1.80;;
60867;SDS011;46702;48.370;10.794;2023-04-15T12:59:13;1.88;;;1.48;;
60867;SDS011;46702;48.370;10.794;2023-04-15T13:01:40;1.80;;;1.70;;
60867;SDS011;46702;48.370;10.794;2023-04-15T13:04:06;2.97;;;1.80;;
60867;SDS011;46702;48.370;10.794;2023-04-15T13:06:32;3.65;;;1.90;;
60867;SDS011;46702;48.370;10.794;2023-04-15T13:08:58;3.55;;;1.90;;
60867;SDS011;46702;48.370;10.794;2023-04-15T13:11:25;1.70;;;1.60;;
60867;SDS011;46702;48.370;10.794;2023-04-15T13:13:53;1.80;;;1.70;;
60867;SDS011;46702;48.370;10.794;2023-04-15T13:16:19;1.25;;;1.15;;
60867;SDS011;46702;48.370;10.794;2023-04-15T13:18:45;1.73;;;1.40;;
60867;SDS011;46702;48.370;10.794;2023-04-15T13:21:12;3.72;;;1.70;;
60867;SDS011;46702;48.370;10.794;2023-04-15T13:23:38;3.85;;;1.40;;
60867;SDS011;46702;48.370;10.794;2023-04-15T13:26:05;2.10;;;1.52;;
60867;SDS011;46702;48.370;10.794;2023-04-15T13:28:31;3.40;;;1.20;;
60867;SDS011;46702;48.370;10.794;2023-04-15T13:30:56;0.77;;;0.77;;
60867;SDS011;46702;48.370;10.794;2023-04-15T13:33:22;2.38;;;1.30;;
60867;SDS011;46702;48.370;10.794;2023-04-15T13:35:47;1.42;;;1.33;;
60867;SDS011;46702;48.370;10.794;2023-04-15T13:38:13;1.42;;;1.33;;
60867;SDS011;46702;48.370;10.794;2023-04-15T13:40:39;4.55;;;1.63;;
60867;SDS011;46702;48.370;10.794;2023-04-15T13:43:05;2.08;;;1.52;;
60867;SDS011;46702;48.370;10.794;2023-04-15T13:45:30;3.10;;;2.00;;
60867;SDS011;46702;48.370;10.794;2023-04-15T13:47:56;3.17;;;1.70;;
60867;SDS011;46702;48.370;10.794;2023-04-15T13:50:22;1.88;;;1.40;;
60867;SDS011;46702;48.370;10.794;2023-04-15T13:52:47;2.42;;;1.48;;
60867;SDS011;46702;48.370;10.794;2023-04-15T13:55:13;1.60;;;1.40;;
60867;SDS011;46702;48.370;10.794;2023-04-15T13:57:38;4.00;;;1.38;;
60867;SDS011;46702;48.370;10.794;2023-04-15T14:00:04;2.10;;;1.20;;
60867;SDS011;46702;48.370;10.794;2023-04-15T14:02:31;2.65;;;1.50;;
60867;SDS011;46702;48.370;10.794;2023-04-15T14:04:56;1.88;;;1.42;;
60867;SDS011;46702;48.370;10.794;2023-04-15T14:07:22;2.17;;;1.40;;
60867;SDS011;46702;48.370;10.794;2023-04-15T14:09:48;3.03;;;1.40;;
60867;SDS011;46702;48.370;10.794;2023-04-15T14:12:13;2.60;;;1.70;;
60867;SDS011;46702;48.370;10.794;2023-04-15T14:14:39;2.25;;;1.55;;
60867;SDS011;46702;48.370;10.794;2023-04-15T14:17:05;1.40;;;1.30;;
60867;SDS011;46702;48.370;10.794;2023-04-15T14:19:31;1.60;;;1.50;;
60867;SDS011;46702;48.370;10.794;2023-04-15T14:21:57;1.98;;;1.52;;
60867;SDS011;46702;48.370;10.794;2023-04-15T14:24:23;2.83;;;1.70;;
60867;SDS011;46702;48.370;10.794;2023-04-15T14:26:48;1.58;;;1.48;;
60867;SDS011;46702;48.370;10.794;2023-04-15T14:29:14;1.13;;;1.05;;
60867;SDS011;46702;48.370;10.794;2023-04-15T14:31:40;1.38;;;1.27;;
60867;SDS011;46702;48.370;10.794;2023-04-15T14:34:06;2.40;;;1.60;;
60867;SDS011;46702;48.370;10.794;2023-04-15T14:36:32;1.98;;;1.88;;
60867;SDS011;46702;48.370;10.794;2023-04-15T14:38:57;1.35;;;1.20;;
60867;SDS011;46702;48.370;10.794;2023-04-15T14:41:23;2.72;;;1.63;;
60867;SDS011;46702;48.370;10.794;2023-04-15T14:43:49;2.00;;;1.58;;
60867;SDS011;46702;48.370;10.794;2023-04-15T14:46:15;1.95;;;1.70;;
60867;SDS011;46702;48.370;10.794;2023-04-15T14:48:41;3.20;;;1.50;;
60867;SDS011;46702;48.370;10.794;2023-04-15T14:51:06;1.00;;;1.00;;
60867;SDS011;46702;48.370;10.794;2023-04-15T14:53:32;2.80;;;1.40;;
60867;SDS011;46702;48.370;10.794;2023-04-15T14:55:58;1.33;;;1.27;;
60867;SDS011;46702;48.370;10.794;2023-04-15T14:58:23;1.88;;;1.70;;
60867;SDS011;46702;48.370;10.794;2023-04-15T15:00:49;1.77;;;1.50;;
60867;SDS011;46702;48.370;10.794;2023-04-15T15:03:15;1.70;;;1.30;;
60867;SDS011;46702;48.370;10.794;2023-04-15T15:05:40;1.50;;;1.40;;
60867;SDS011;46702;48.370;10.794;2023-04-15T15:08:07;1.42;;;1.33;;
60867;SDS011;46702;48.370;10.794;2023-04-15T15:10:34;1.52;;;1.40;;